Time;durP1;ratioP1;P1;durP2;ratioP2;P2;SDS_P1;SDS_P2;PMS_P1;PMS_P2;Temp;Humidity;BMP_temperature;BMP_pressure;BME280_temperature;BME280_humidity;BME280_pressure;Samples;Min_cycle;Max_cycle;Signal;HPM_P1;HPM_P2
2023/05/31 00:00:26;;;;;;;10.52;8.80;;;9.10;99.90;;;;;;5053959;28;20053;-77
2023/05/31 00:02:52;;;;;;;10.52;9.43;;;9.00;99.90;;;;;;5052733;28;20032;-77
2023/05/31 00:05:17;;;;;;;10.15;8.93;;;8.90;99.90;;;;;;5071998;28;20177;-77
2023/05/31 00:07:43;;;;;;;14.65;10.38;;;8.80;99.90;;;;;;5070129;28;20043;-77
2023/05/31 00:10:09;;;;;;;10.48;9.23;;;8.80;99.90;;;;;;5037021;28;20037;-77
2023/05/31 00:12:34;;;;;;;11.18;9.65;;;8.70;99.90;;;;;;5065034;28;20131;-77
2023/05/31 00:15:00;;;;;;;12.20;10.00;;;8.60;99.90;;;;;;5057286;28;20537;-77
2023/05/31 00:17:25;;;;;;;10.02;9.02;;;8.60;99.90;;;;;;5069234;28;20040;-77
2023/05/31 00:19:51;;;;;;;10.80;9.63;;;8.40;99.90;;;;;;5053535;28;20050;-77
2023/05/31 00:22:16;;;;;;;13.65;11.45;;;8.40;99.90;;;;;;5053191;28;20051;-77
2023/05/31 00:24:43;;;;;;;13.23;10.60;;;8.30;99.90;;;;;;5061800;28;20060;-77
2023/05/31 00:27:09;;;;;;;12.63;10.55;;;8.20;99.90;;;;;;5070237;28;20473;-77
2023/05/31 00:29:34;;;;;;;16.48;12.52;;;8.20;99.90;;;;;;5038651;28;20064;-77
2023/05/31 00:32:00;;;;;;;12.38;10.38;;;8.20;99.90;;;;;;5052601;28;20456;-77
2023/05/31 00:34:25;;;;;;;11.90;10.20;;;8.20;99.90;;;;;;5069862;28;20032;-77
2023/05/31 00:36:51;;;;;;;12.68;10.50;;;8.10;99.90;;;;;;5070005;28;20048;-77
2023/05/31 00:39:17;;;;;;;14.25;12.43;;;8.10;99.90;;;;;;5057596;28;20037;-77
2023/05/31 00:41:42;;;;;;;13.05;10.43;;;8.10;99.90;;;;;;5053266;28;20041;-77
2023/05/31 00:44:08;;;;;;;13.95;11.55;;;8.00;99.90;;;;;;5044305;28;20039;-77
2023/05/31 00:46:38;;;;;;;13.10;10.70;;;8.00;99.90;;;;;;5085180;28;20476;-77
2023/05/31 00:49:04;;;;;;;15.13;12.40;;;8.00;99.90;;;;;;5066039;28;20185;-77
2023/05/31 00:51:31;;;;;;;15.88;11.20;;;8.00;99.90;;;;;;5053163;28;20044;-77
2023/05/31 00:53:59;;;;;;;14.95;12.15;;;8.00;99.90;;;;;;5032353;28;20044;-77
2023/05/31 00:56:24;;;;;;;13.70;11.30;;;7.90;99.90;;;;;;5063600;28;20119;-77
2023/05/31 00:58:52;;;;;;;15.15;11.82;;;7.90;99.90;;;;;;5054578;28;20162;-77
2023/05/31 01:01:19;;;;;;;18.00;12.57;;;7.90;99.90;;;;;;5064958;28;20044;-77
2023/05/31 01:03:46;;;;;;;16.42;13.27;;;7.90;99.90;;;;;;5059540;28;20044;-77
2023/05/31 01:06:11;;;;;;;20.48;13.70;;;7.90;99.90;;;;;;5043887;28;20045;-78
2023/05/31 01:08:38;;;;;;;17.40;13.52;;;8.00;99.90;;;;;;5056731;28;20040;-78
2023/05/31 01:11:15;;;;;;;16.88;13.48;;;8.00;99.90;;;;;;5054996;28;20402;-78
2023/05/31 01:13:54;;;;;;;14.20;11.25;;;8.00;99.90;;;;;;5052475;28;20036;-78
2023/05/31 01:16:31;;;;;;;14.55;12.20;;;8.00;99.90;;;;;;5046135;28;20082;-78
2023/05/31 01:19:05;;;;;;;16.98;12.82;;;8.00;99.90;;;;;;5039853;28;20501;-78
2023/05/31 01:21:57;;;;;;;17.33;12.60;;;7.90;99.90;;;;;;5056574;28;20033;-78
2023/05/31 01:24:34;;;;;;;17.92;12.68;;;7.90;99.90;;;;;;5044182;28;20049;-78
2023/05/31 01:27:01;;;;;;;15.48;11.80;;;7.90;99.90;;;;;;5033003;28;20041;-78
2023/05/31 01:29:30;;;;;;;23.17;15.40;;;7.90;99.90;;;;;;5070938;28;20051;-77
2023/05/31 01:31:59;;;;;;;19.35;13.75;;;7.90;99.90;;;;;;5056338;28;20044;-77
2023/05/31 01:34:24;;;;;;;21.25;14.75;;;7.90;99.90;;;;;;5036419;28;20043;-77
2023/05/31 01:36:50;;;;;;;16.17;12.20;;;7.90;99.90;;;;;;5073067;28;20040;-77
2023/05/31 01:39:16;;;;;;;14.90;12.35;;;7.80;99.90;;;;;;5073029;28;20397;-77
2023/05/31 01:41:45;;;;;;;14.90;11.52;;;7.70;99.90;;;;;;5059550;28;20055;-77
2023/05/31 01:44:13;;;;;;;17.10;12.70;;;7.70;99.90;;;;;;5035483;28;20040;-77
2023/05/31 01:46:41;;;;;;;13.23;11.40;;;7.60;99.90;;;;;;5063450;28;20044;-76
2023/05/31 01:49:07;;;;;;;19.65;14.30;;;7.60;99.90;;;;;;5056021;28;20041;-76
2023/05/31 01:51:36;;;;;;;13.80;11.85;;;7.60;99.90;;;;;;5072553;28;20035;-76
2023/05/31 01:54:01;;;;;;;26.42;17.13;;;7.50;99.90;;;;;;5055332;28;20048;-77
2023/05/31 01:56:30;;;;;;;16.80;13.00;;;7.50;99.90;;;;;;5054437;28;20028;-77
2023/05/31 01:58:58;;;;;;;15.00;11.55;;;7.50;99.90;;;;;;5039513;28;20037;-77
2023/05/31 02:01:24;;;;;;;21.70;15.65;;;7.40;99.90;;;;;;5054740;28;20503;-77
2023/05/31 02:03:51;;;;;;;15.57;12.77;;;7.40;99.90;;;;;;5056948;28;20040;-77
2023/05/31 02:06:17;;;;;;;17.85;13.35;;;7.40;99.90;;;;;;5062824;28;20068;-77
2023/05/31 02:08:42;;;;;;;22.98;16.30;;;7.30;99.90;;;;;;5038014;28;20044;-77
2023/05/31 02:11:08;;;;;;;19.75;14.40;;;7.30;99.90;;;;;;5055436;28;20032;-76
2023/05/31 02:13:34;;;;;;;20.35;14.35;;;7.30;99.90;;;;;;5054869;28;20097;-77
2023/05/31 02:16:00;;;;;;;23.17;17.20;;;7.20;99.90;;;;;;5061226;28;20043;-76
2023/05/31 02:18:26;;;;;;;14.85;12.55;;;7.20;99.90;;;;;;5055528;28;20127;-76
2023/05/31 02:20:53;;;;;;;19.85;13.95;;;7.20;99.90;;;;;;5038337;28;20048;-76
2023/05/31 02:23:19;;;;;;;16.77;13.68;;;7.10;99.90;;;;;;5053732;28;20047;-77
2023/05/31 02:25:49;;;;;;;22.77;16.50;;;7.10;99.90;;;;;;5056674;28;20086;-76
2023/05/31 02:28:15;;;;;;;21.92;16.70;;;7.10;99.90;;;;;;5038807;28;20495;-77
2023/05/31 02:30:52;;;;;;;23.02;17.30;;;7.10;99.90;;;;;;5055226;28;20471;-77
2023/05/31 02:33:18;;;;;;;20.08;14.27;;;7.10;99.90;;;;;;5030002;28;20049;-77
2023/05/31 02:35:43;;;;;;;31.85;19.42;;;7.10;99.90;;;;;;5038604;28;20044;-76
2023/05/31 02:38:09;;;;;;;20.70;15.55;;;7.00;99.90;;;;;;5055303;28;20646;-77
2023/05/31 02:40:35;;;;;;;20.52;15.15;;;7.00;99.90;;;;;;5038295;28;20101;-77
2023/05/31 02:43:00;;;;;;;28.38;19.23;;;7.00;99.90;;;;;;5051215;28;20047;-76
2023/05/31 02:45:26;;;;;;;30.42;20.27;;;7.00;99.90;;;;;;5056258;28;20157;-77
2023/05/31 02:47:52;;;;;;;28.67;19.33;;;7.00;99.90;;;;;;5054701;28;20045;-76
2023/05/31 02:50:17;;;;;;;19.40;15.30;;;6.90;99.90;;;;;;5038008;28;20039;-77
2023/05/31 02:52:43;;;;;;;22.85;15.90;;;6.90;99.90;;;;;;5070885;28;20494;-77
2023/05/31 02:55:08;;;;;;;19.95;14.73;;;6.90;99.90;;;;;;5048010;28;20037;-77
2023/05/31 02:57:34;;;;;;;24.95;16.23;;;6.90;99.90;;;;;;5050891;28;20040;-77
2023/05/31 03:00:10;;;;;;;17.95;13.43;;;6.80;99.90;;;;;;5054132;28;20123;-77
2023/05/31 03:02:37;;;;;;;29.13;17.92;;;6.80;99.90;;;;;;5051842;28;20106;-77
2023/05/31 03:05:04;;;;;;;18.88;14.43;;;6.70;99.90;;;;;;5048779;28;20589;-77
2023/05/31 03:07:29;;;;;;;21.55;15.45;;;6.70;99.90;;;;;;5054410;28;20041;-77
2023/05/31 03:09:55;;;;;;;21.27;15.10;;;6.70;99.90;;;;;;5053472;28;20043;-77
2023/05/31 03:12:21;;;;;;;32.03;20.15;;;6.70;99.90;;;;;;5036521;28;20481;-77
2023/05/31 03:14:46;;;;;;;29.38;18.15;;;6.60;99.90;;;;;;5046031;28;20043;-77
2023/05/31 03:17:12;;;;;;;27.52;17.83;;;6.60;99.90;;;;;;5054280;28;20090;-77
2023/05/31 03:19:37;;;;;;;19.10;15.18;;;6.60;99.90;;;;;;5071011;28;20047;-77
2023/05/31 03:22:03;;;;;;;20.63;14.75;;;6.60;99.90;;;;;;5066601;28;20025;-77
2023/05/31 03:24:29;;;;;;;22.02;14.85;;;6.60;99.90;;;;;;5040425;28;20506;-77
2023/05/31 03:26:55;;;;;;;27.08;17.88;;;6.60;99.90;;;;;;5054074;28;20081;-76
2023/05/31 03:29:20;;;;;;;20.20;15.57;;;6.60;99.90;;;;;;5054603;28;20040;-77
2023/05/31 03:31:46;;;;;;;25.10;16.10;;;6.70;99.90;;;;;;5051383;28;20029;-77
2023/05/31 03:34:12;;;;;;;25.05;16.85;;;6.70;99.90;;;;;;5062303;28;20064;-77
2023/05/31 03:36:37;;;;;;;22.58;15.48;;;6.70;99.90;;;;;;5053010;28;20035;-77
2023/05/31 03:39:03;;;;;;;23.02;15.20;;;6.70;99.90;;;;;;5070795;28;20119;-77
2023/05/31 03:41:29;;;;;;;24.77;16.45;;;6.70;99.90;;;;;;5057834;28;20521;-76
2023/05/31 03:43:55;;;;;;;19.10;13.90;;;6.60;99.90;;;;;;5062240;28;20033;-77
2023/05/31 03:46:20;;;;;;;17.45;13.02;;;6.60;99.90;;;;;;5050763;28;20059;-77
2023/05/31 03:48:46;;;;;;;20.63;15.05;;;6.70;99.90;;;;;;5054206;28;20123;-77
2023/05/31 03:51:12;;;;;;;26.42;16.45;;;6.70;99.90;;;;;;5056027;28;20074;-77
2023/05/31 03:53:37;;;;;;;26.40;17.83;;;6.70;99.90;;;;;;5062415;28;20040;-77
2023/05/31 03:56:03;;;;;;;24.27;17.67;;;6.70;99.90;;;;;;5053608;28;20482;-77
2023/05/31 03:58:28;;;;;;;36.55;21.60;;;6.70;99.90;;;;;;5053852;28;20086;-77
2023/05/31 04:00:54;;;;;;;28.20;17.83;;;6.80;99.90;;;;;;5059807;28;20040;-77
2023/05/31 04:03:20;;;;;;;37.30;22.23;;;6.90;99.90;;;;;;5058314;28;20119;-77
2023/05/31 04:05:46;;;;;;;42.70;22.77;;;7.00;99.90;;;;;;5053730;28;20410;-77
2023/05/31 04:08:12;;;;;;;32.67;20.08;;;7.10;99.90;;;;;;5053698;28;20063;-77
2023/05/31 04:10:37;;;;;;;28.10;19.42;;;7.30;99.90;;;;;;5031942;28;20048;-77
2023/05/31 04:13:03;;;;;;;29.13;19.50;;;7.30;99.90;;;;;;5029878;28;20110;-77
2023/05/31 04:15:28;;;;;;;32.05;20.85;;;7.40;99.90;;;;;;5043236;28;20032;-77
2023/05/31 04:17:55;;;;;;;33.38;21.65;;;7.50;99.90;;;;;;5037077;28;20037;-77
2023/05/31 04:20:21;;;;;;;37.53;22.27;;;7.60;99.90;;;;;;5052820;28;20522;-77
2023/05/31 04:22:47;;;;;;;38.38;23.13;;;7.70;99.90;;;;;;5054718;28;20119;-77
2023/05/31 04:25:12;;;;;;;33.00;20.38;;;7.80;99.90;;;;;;5045374;28;20090;-77
2023/05/31 04:27:40;;;;;;;29.05;19.58;;;8.00;99.90;;;;;;5052348;28;20620;-77
2023/05/31 04:30:06;;;;;;;23.15;16.92;;;8.50;99.90;;;;;;5036477;28;20040;-77
2023/05/31 04:32:34;;;;;;;19.80;14.60;;;9.00;99.90;;;;;;5056836;28;20037;-78
2023/05/31 04:35:03;;;;;;;21.60;15.68;;;9.60;99.90;;;;;;5061862;28;20032;-77
2023/05/31 04:37:29;;;;;;;21.58;15.60;;;10.20;99.90;;;;;;5074223;28;20036;-77
2023/05/31 04:39:59;;;;;;;22.42;14.82;;;10.70;99.90;;;;;;5073792;28;20404;-77
2023/05/31 04:42:25;;;;;;;20.42;14.27;;;11.20;99.90;;;;;;5056686;28;20089;-77
2023/05/31 04:44:57;;;;;;;18.48;14.43;;;11.70;99.90;;;;;;5057687;28;20417;-77
2023/05/31 04:47:27;;;;;;;20.17;15.13;;;12.20;99.90;;;;;;5040769;28;20090;-77
2023/05/31 04:49:54;;;;;;;21.73;15.38;;;12.50;99.90;;;;;;5056594;28;20044;-77
2023/05/31 04:52:20;;;;;;;16.70;14.20;;;12.80;99.90;;;;;;5060007;28;20051;-77
2023/05/31 04:54:45;;;;;;;16.45;14.50;;;13.00;99.90;;;;;;5057761;28;20481;-77
2023/05/31 04:57:11;;;;;;;15.73;14.13;;;13.20;99.90;;;;;;5040722;28;20032;-78
2023/05/31 04:59:36;;;;;;;15.63;13.98;;;13.30;99.90;;;;;;5056126;28;20128;-77
2023/05/31 05:02:02;;;;;;;19.95;14.90;;;13.50;99.90;;;;;;5056006;28;20037;-77
2023/05/31 05:04:28;;;;;;;15.82;13.88;;;13.70;99.90;;;;;;5057031;28;20036;-77
2023/05/31 05:06:53;;;;;;;14.95;13.02;;;13.90;99.90;;;;;;5040375;28;20505;-77
2023/05/31 05:09:19;;;;;;;15.77;13.48;;;14.00;99.90;;;;;;5039990;28;20517;-78
2023/05/31 05:11:44;;;;;;;16.17;12.82;;;14.10;99.90;;;;;;5040662;28;20032;-77
2023/05/31 05:14:11;;;;;;;17.67;12.95;;;14.20;99.90;;;;;;5065299;28;20419;-77
2023/05/31 05:16:36;;;;;;;14.45;11.68;;;14.30;99.90;;;;;;5073856;28;20033;-77
2023/05/31 05:19:02;;;;;;;14.00;12.02;;;14.50;99.90;;;;;;5071626;28;20090;-77
2023/05/31 05:21:28;;;;;;;13.00;11.20;;;14.80;99.90;;;;;;5049468;28;20086;-78
2023/05/31 05:23:54;;;;;;;14.55;11.18;;;15.10;99.90;;;;;;5054735;28;20123;-78
2023/05/31 05:26:20;;;;;;;15.27;11.23;;;15.30;99.90;;;;;;5039974;28;20141;-78
2023/05/31 05:28:45;;;;;;;12.90;10.55;;;15.60;99.90;;;;;;5040260;28;20417;-78
2023/05/31 05:31:11;;;;;;;13.30;11.35;;;15.80;99.90;;;;;;5053214;28;20041;-77
2023/05/31 05:33:36;;;;;;;14.18;11.07;;;15.90;99.90;;;;;;5054710;28;20055;-77
2023/05/31 05:36:02;;;;;;;14.13;10.30;;;16.10;99.90;;;;;;5057008;28;20056;-78
2023/05/31 05:38:27;;;;;;;12.77;10.95;;;16.40;99.90;;;;;;5073092;28;20082;-78
2023/05/31 05:40:53;;;;;;;13.30;10.88;;;16.70;99.90;;;;;;5063044;28;20090;-78
2023/05/31 05:43:18;;;;;;;12.63;11.15;;;16.80;99.90;;;;;;5061890;28;20037;-77
2023/05/31 05:45:44;;;;;;;12.50;11.20;;;16.90;99.90;;;;;;5059022;28;20054;-79
2023/05/31 05:48:10;;;;;;;13.77;10.50;;;16.90;99.90;;;;;;5056470;28;20127;-78
2023/05/31 05:50:35;;;;;;;12.60;10.63;;;16.80;99.90;;;;;;5054070;28;20033;-79
2023/05/31 05:53:01;;;;;;;13.70;11.05;;;16.50;99.90;;;;;;5041750;28;20029;-80
2023/05/31 05:55:26;;;;;;;14.45;11.05;;;16.10;99.90;;;;;;5064881;28;20040;-79
2023/05/31 05:57:52;;;;;;;15.02;11.27;;;15.70;99.90;;;;;;5047474;28;20044;-78
2023/05/31 06:00:18;;;;;;;15.48;12.00;;;15.50;99.90;;;;;;5051876;28;20041;-78
2023/05/31 06:02:44;;;;;;;13.88;11.57;;;15.20;99.90;;;;;;5034987;28;20032;-78
2023/05/31 06:05:10;;;;;;;14.90;11.70;;;15.10;99.90;;;;;;5072491;28;20093;-79
2023/05/31 06:07:35;;;;;;;16.55;12.60;;;14.80;99.90;;;;;;5072309;28;20510;-77
2023/05/31 06:10:02;;;;;;;14.23;12.43;;;14.50;99.90;;;;;;5058242;28;20499;-78
2023/05/31 06:12:29;;;;;;;15.25;13.30;;;14.30;99.90;;;;;;5047661;28;20044;-77
2023/05/31 06:14:55;;;;;;;16.10;13.57;;;14.10;99.90;;;;;;5055091;28;20044;-78
2023/05/31 06:17:20;;;;;;;16.30;12.85;;;14.00;99.90;;;;;;5039022;28;20383;-77
2023/05/31 06:19:46;;;;;;;15.43;12.88;;;13.90;99.90;;;;;;5047701;28;20044;-77
2023/05/31 06:22:11;;;;;;;16.85;12.75;;;13.90;99.90;;;;;;5055543;28;20040;-77
2023/05/31 06:24:37;;;;;;;13.73;12.23;;;13.90;99.90;;;;;;5054524;28;20098;-78
2023/05/31 06:27:03;;;;;;;12.70;11.32;;;13.80;99.90;;;;;;5050141;28;20082;-77
2023/05/31 06:29:28;;;;;;;14.68;12.63;;;13.90;99.90;;;;;;5044503;28;20036;-77
2023/05/31 06:31:55;;;;;;;15.80;12.18;;;13.90;99.90;;;;;;5061077;28;20090;-77
2023/05/31 06:34:21;;;;;;;14.55;11.50;;;13.90;99.90;;;;;;5054956;28;20040;-77
2023/05/31 06:36:47;;;;;;;13.00;10.25;;;13.80;99.90;;;;;;5052803;28;20394;-77
2023/05/31 06:39:12;;;;;;;11.57;9.43;;;13.90;99.90;;;;;;5053343;28;20047;-77
2023/05/31 06:41:38;;;;;;;13.80;10.18;;;14.10;99.90;;;;;;5070232;28;20054;-78
2023/05/31 06:44:04;;;;;;;12.07;8.77;;;14.10;99.90;;;;;;5072270;28;20032;-80
2023/05/31 06:46:29;;;;;;;10.13;8.52;;;14.20;99.90;;;;;;5082298;28;20036;-78
2023/05/31 06:48:55;;;;;;;9.75;8.38;;;14.30;99.90;;;;;;5058823;28;20040;-79
2023/05/31 06:51:22;;;;;;;11.93;8.32;;;14.40;99.90;;;;;;5060884;28;20406;-80
2023/05/31 06:53:49;;;;;;;10.63;8.93;;;14.40;99.90;;;;;;5052402;28;20040;-79
2023/05/31 06:56:15;;;;;;;11.05;8.50;;;14.50;99.90;;;;;;5051335;28;20041;-78
2023/05/31 06:58:41;;;;;;;13.55;8.48;;;14.60;99.90;;;;;;5063411;28;20465;-78
2023/05/31 07:01:07;;;;;;;11.25;8.57;;;14.60;99.90;;;;;;5064463;28;20044;-80
2023/05/31 07:03:32;;;;;;;9.90;8.15;;;14.70;99.90;;;;;;5038670;28;20113;-77
2023/05/31 07:05:58;;;;;;;11.80;8.20;;;14.80;99.90;;;;;;5053428;28;20032;-78
2023/05/31 07:08:24;;;;;;;12.40;8.30;;;14.90;99.90;;;;;;5048839;28;20478;-77
2023/05/31 07:10:49;;;;;;;12.35;8.60;;;14.90;99.90;;;;;;5052827;28;20032;-77
2023/05/31 07:13:15;;;;;;;10.68;8.15;;;15.00;99.90;;;;;;5053505;28;20044;-77
2023/05/31 07:15:41;;;;;;;9.95;7.65;;;15.10;99.90;;;;;;5053467;28;20063;-76
2023/05/31 07:18:06;;;;;;;10.65;7.93;;;15.20;99.90;;;;;;5054130;28;20037;-77
2023/05/31 07:20:32;;;;;;;10.32;8.60;;;15.30;99.90;;;;;;5070876;28;20044;-77
2023/05/31 07:22:57;;;;;;;11.80;8.32;;;15.30;99.90;;;;;;5053199;28;20039;-76
2023/05/31 07:25:24;;;;;;;11.60;8.13;;;15.50;99.90;;;;;;5062550;28;20043;-77
2023/05/31 07:27:49;;;;;;;11.45;8.57;;;15.50;99.90;;;;;;5070949;28;20388;-77
2023/05/31 07:30:15;;;;;;;10.52;7.75;;;15.60;99.90;;;;;;5054356;28;20036;-77
2023/05/31 07:32:42;;;;;;;10.73;7.82;;;15.70;99.90;;;;;;5070814;28;20124;-76
2023/05/31 07:35:08;;;;;;;11.80;8.27;;;15.90;99.90;;;;;;5070857;28;20080;-77
2023/05/31 07:37:34;;;;;;;10.38;7.47;;;16.00;99.90;;;;;;5065711;28;20041;-77
2023/05/31 07:39:59;;;;;;;11.50;7.90;;;16.10;99.90;;;;;;5053997;28;20412;-77
2023/05/31 07:42:25;;;;;;;16.95;7.78;;;16.20;99.90;;;;;;5054417;28;20048;-77
2023/05/31 07:44:51;;;;;;;9.95;7.43;;;16.40;99.90;;;;;;5070765;28;20406;-77
2023/05/31 07:47:16;;;;;;;9.95;7.97;;;16.80;99.90;;;;;;5070412;28;20059;-77
2023/05/31 07:49:42;;;;;;;8.40;6.85;;;17.40;99.90;;;;;;5053911;28;20412;-77
2023/05/31 07:52:08;;;;;;;8.88;7.20;;;18.10;99.90;;;;;;5062185;28;20115;-77
2023/05/31 07:54:33;;;;;;;8.95;6.88;;;18.80;99.90;;;;;;5053879;28;20097;-77
2023/05/31 07:56:59;;;;;;;10.43;7.05;;;19.30;99.90;;;;;;5070360;28;20036;-77
2023/05/31 07:59:25;;;;;;;9.73;6.28;;;19.70;99.90;;;;;;5053824;28;20044;-77
2023/05/31 08:01:51;;;;;;;8.80;6.22;;;19.90;99.90;;;;;;5036024;28;20036;-77
2023/05/31 08:04:16;;;;;;;8.95;5.85;;;20.30;96.00;;;;;;5037163;28;20047;-77
2023/05/31 08:06:42;;;;;;;8.25;5.97;;;20.40;92.80;;;;;;5053325;28;20533;-77
2023/05/31 08:09:08;;;;;;;9.10;6.05;;;20.80;97.90;;;;;;5053843;28;20123;-77
2023/05/31 08:11:37;;;;;;;7.47;5.55;;;21.10;84.00;;;;;;5053617;28;20050;-77
2023/05/31 08:14:03;;;;;;;8.50;5.95;;;21.30;90.60;;;;;;5052790;28;20040;-77
2023/05/31 08:16:31;;;;;;;9.00;5.80;;;21.80;91.50;;;;;;5049801;28;20403;-77
2023/05/31 08:18:57;;;;;;;8.13;5.53;;;22.30;88.30;;;;;;5053738;28;20098;-77
2023/05/31 08:21:22;;;;;;;7.90;5.55;;;22.70;75.90;;;;;;5037203;28;20072;-77
2023/05/31 08:23:48;;;;;;;11.52;5.72;;;22.90;71.90;;;;;;5053720;28;20050;-77
2023/05/31 08:26:13;;;;;;;8.32;4.95;;;22.90;68.80;;;;;;5052562;28;20048;-77
2023/05/31 08:28:39;;;;;;;8.82;5.70;;;22.80;68.60;;;;;;5052795;28;20048;-77
2023/05/31 08:31:04;;;;;;;7.82;5.90;;;22.90;68.70;;;;;;5069997;28;20040;-77
2023/05/31 08:33:31;;;;;;;7.22;5.18;;;23.00;68.30;;;;;;5053609;28;20037;-77
2023/05/31 08:35:59;;;;;;;8.02;5.18;;;22.90;71.00;;;;;;5053406;28;20045;-77
2023/05/31 08:38:28;;;;;;;8.25;4.90;;;23.20;69.70;;;;;;5037029;28;20043;-77
2023/05/31 08:41:00;;;;;;;7.55;4.68;;;23.60;69.60;;;;;;5052511;28;20051;-77
2023/05/31 08:43:27;;;;;;;7.03;4.43;;;24.10;68.10;;;;;;5061442;28;20055;-77
2023/05/31 08:45:54;;;;;;;7.72;5.30;;;24.40;64.00;;;;;;5053243;28;20048;-77
2023/05/31 08:48:41;;;;;;;7.30;4.43;;;24.30;64.10;;;;;;5070206;28;20120;-77
2023/05/31 08:51:08;;;;;;;6.80;5.13;;;24.40;61.90;;;;;;5070032;28;20098;-77
2023/05/31 08:53:34;;;;;;;9.05;5.07;;;24.30;62.40;;;;;;5070209;28;20043;-77
2023/05/31 08:56:01;;;;;;;7.88;4.40;;;24.50;61.00;;;;;;5035638;28;20036;-77
2023/05/31 08:58:28;;;;;;;6.45;4.70;;;24.50;60.80;;;;;;5053422;28;20086;-77
2023/05/31 09:00:54;;;;;;;9.10;4.97;;;24.30;62.90;;;;;;5069905;28;20055;-77
2023/05/31 09:03:21;;;;;;;15.65;5.72;;;24.50;62.00;;;;;;5070005;28;20036;-77
2023/05/31 09:05:47;;;;;;;9.15;5.20;;;24.70;62.50;;;;;;5057927;28;20449;-77
2023/05/31 09:08:13;;;;;;;19.55;6.38;;;24.90;63.40;;;;;;5061549;28;20043;-77
2023/05/31 09:10:40;;;;;;;7.18;4.43;;;25.40;64.30;;;;;;5064080;28;20040;-77
2023/05/31 09:13:06;;;;;;;7.10;4.07;;;25.90;60.00;;;;;;5053486;28;20040;-77
2023/05/31 09:15:34;;;;;;;5.72;4.10;;;26.00;57.60;;;;;;5036889;28;20032;-77
2023/05/31 09:18:13;;;;;;;6.43;4.72;;;25.90;58.10;;;;;;5073170;28;20045;-77
2023/05/31 09:20:39;;;;;;;7.72;4.65;;;25.70;59.30;;;;;;5069285;28;20040;-77
2023/05/31 09:23:05;;;;;;;7.38;4.63;;;25.70;59.40;;;;;;5040091;28;20086;-77
2023/05/31 09:25:51;;;;;;;7.53;4.47;;;25.90;59.00;;;;;;5056809;28;20033;-77
2023/05/31 09:28:19;;;;;;;7.32;4.45;;;26.10;58.40;;;;;;5056968;28;20040;-78
2023/05/31 09:30:44;;;;;;;7.35;4.13;;;26.30;55.10;;;;;;5056811;28;20040;-78
2023/05/31 09:33:12;;;;;;;7.25;4.25;;;25.90;55.30;;;;;;5055881;28;20471;-78
2023/05/31 09:35:52;;;;;;;5.00;4.22;;;25.70;56.00;;;;;;5055620;28;20043;-77
2023/05/31 09:38:17;;;;;;;6.78;4.70;;;25.30;58.00;;;;;;5056637;28;20072;-77
2023/05/31 09:40:43;;;;;;;8.18;4.97;;;25.20;57.30;;;;;;5056116;28;20526;-77
2023/05/31 09:43:09;;;;;;;6.40;4.10;;;25.20;61.30;;;;;;5056757;28;20047;-77
2023/05/31 09:45:35;;;;;;;7.85;4.10;;;25.80;57.90;;;;;;5056422;28;20118;-77
2023/05/31 09:48:01;;;;;;;6.78;3.90;;;26.20;55.00;;;;;;5054959;28;20467;-77
2023/05/31 09:50:26;;;;;;;6.95;3.97;;;26.00;58.80;;;;;;5055580;28;20102;-78
2023/05/31 09:52:57;;;;;;;9.02;4.80;;;26.60;55.60;;;;;;5056994;28;20390;-78
2023/05/31 09:55:23;;;;;;;9.80;4.78;;;26.80;55.80;;;;;;5056975;28;20037;-77
2023/05/31 09:57:52;;;;;;;6.68;4.18;;;26.70;55.30;;;;;;5056128;28;20552;-77
2023/05/31 10:00:18;;;;;;;7.80;4.63;;;26.60;55.90;;;;;;5056149;28;20040;-77
2023/05/31 10:02:48;;;;;;;7.35;4.70;;;26.70;58.00;;;;;;5055393;28;20044;-77
2023/05/31 10:05:16;;;;;;;7.38;5.00;;;27.10;58.20;;;;;;5056435;28;20048;-78
2023/05/31 10:07:52;;;;;;;9.38;4.50;;;27.90;53.90;;;;;;5039531;28;20062;-77
2023/05/31 10:10:20;;;;;;;7.90;4.30;;;28.00;52.80;;;;;;5056544;28;20047;-77
2023/05/31 10:12:54;;;;;;;9.27;4.30;;;27.70;53.80;;;;;;5056053;28;20618;-78
2023/05/31 10:15:26;;;;;;;8.82;5.00;;;27.70;52.90;;;;;;5040001;28;20169;-77
2023/05/31 10:18:00;;;;;;;7.25;4.63;;;27.30;53.20;;;;;;5056652;28;20043;-78
2023/05/31 10:20:32;;;;;;;8.85;5.00;;;26.90;56.20;;;;;;5056726;28;20039;-78
2023/05/31 10:23:04;;;;;;;6.78;4.32;;;27.20;53.90;;;;;;5039929;28;20044;-78
2023/05/31 10:25:40;;;;;;;9.37;4.80;;;27.30;54.10;;;;;;5057273;28;20411;-78
2023/05/31 10:28:12;;;;;;;7.75;4.32;;;27.30;53.00;;;;;;5055077;28;20102;-78
2023/05/31 10:30:40;;;;;;;6.38;3.97;;;27.00;54.10;;;;;;5054501;28;20041;-77
2023/05/31 10:33:08;;;;;;;6.30;4.40;;;26.90;54.70;;;;;;5056623;28;20048;-78
2023/05/31 10:35:34;;;;;;;8.18;5.05;;;26.90;54.50;;;;;;5073326;28;20066;-77
2023/05/31 10:38:01;;;;;;;6.88;5.60;;;27.00;55.50;;;;;;5056132;28;20043;-77
2023/05/31 10:41:03;;;;;;;6.93;4.90;;;27.20;54.80;;;;;;5072406;28;20072;-77
2023/05/31 10:43:39;;;;;;;7.65;4.65;;;27.50;54.50;;;;;;5014107;28;20048;-77
2023/05/31 10:46:10;;;;;;;6.72;4.60;;;27.50;57.10;;;;;;5073252;28;20101;-78
2023/05/31 10:49:07;;;;;;;8.63;5.30;;;28.20;54.50;;;;;;5073565;28;20040;-77
2023/05/31 10:51:47;;;;;;;6.43;4.95;;;28.20;54.90;;;;;;5035596;28;20044;-78
2023/05/31 10:54:27;;;;;;;8.43;5.38;;;28.40;51.80;;;;;;5056275;28;20040;-78
2023/05/31 10:56:57;;;;;;;8.82;5.25;;;28.10;52.20;;;;;;5073084;28;20056;-77
2023/05/31 10:59:25;;;;;;;7.80;4.82;;;27.60;55.70;;;;;;5072697;28;20042;-78
2023/05/31 11:01:51;;;;;;;7.60;4.72;;;27.90;56.20;;;;;;5056318;28;20045;-78
2023/05/31 11:04:22;;;;;;;8.35;4.53;;;28.50;53.10;;;;;;5074146;28;20062;-78
2023/05/31 11:06:51;;;;;;;6.55;4.35;;;28.60;55.30;;;;;;5072617;28;20451;-77
2023/05/31 11:09:17;;;;;;;6.43;4.55;;;28.80;54.40;;;;;;5072936;28;20055;-78
2023/05/31 11:11:48;;;;;;;8.43;4.28;;;29.10;53.10;;;;;;5056106;28;20048;-78
2023/05/31 11:14:27;;;;;;;6.40;3.80;;;29.50;51.30;;;;;;5072849;28;20083;-77
2023/05/31 11:16:53;;;;;;;10.63;4.10;;;29.30;51.30;;;;;;5055762;28;20040;-77
2023/05/31 11:19:21;;;;;;;7.65;3.97;;;29.10;54.30;;;;;;5039452;28;20043;-79
2023/05/31 11:21:51;;;;;;;8.45;4.45;;;29.40;51.00;;;;;;5072665;28;20041;-78
2023/05/31 11:24:36;;;;;;;6.13;4.53;;;29.40;50.20;;;;;;5056105;28;20036;-78
2023/05/31 11:27:05;;;;;;;7.13;3.95;;;29.10;51.40;;;;;;5039378;28;20044;-78
2023/05/31 11:30:09;;;;;;;8.52;4.53;;;28.80;53.00;;;;;;5056641;28;20528;-78
2023/05/31 11:32:34;;;;;;;6.95;4.18;;;29.00;51.00;;;;;;5061731;28;20053;-77
2023/05/31 11:35:06;;;;;;;7.90;4.10;;;28.90;51.20;;;;;;5072255;28;20094;-77
2023/05/31 11:37:34;;;;;;;8.38;5.15;;;28.50;54.50;;;;;;5038537;28;20127;-78
2023/05/31 11:40:03;;;;;;;9.30;4.78;;;28.80;53.50;;;;;;5055815;28;20039;-78
2023/05/31 11:42:30;;;;;;;8.98;4.72;;;29.00;50.90;;;;;;5054759;28;20067;-78
2023/05/31 11:44:56;;;;;;;7.68;4.80;;;28.80;52.70;;;;;;5071829;28;20502;-78
2023/05/31 11:47:37;;;;;;;6.15;4.57;;;29.10;52.70;;;;;;5038927;28;20116;-78
2023/05/31 11:50:03;;;;;;;6.88;4.43;;;29.40;50.40;;;;;;5071592;28;20051;-77
2023/05/31 11:52:29;;;;;;;5.45;3.92;;;28.90;51.10;;;;;;5055338;28;20041;-78
2023/05/31 11:55:03;;;;;;;7.75;4.40;;;28.70;53.70;;;;;;5039370;28;20114;-77
2023/05/31 11:57:30;;;;;;;5.50;3.60;;;28.90;53.80;;;;;;5072348;28;20040;-78
2023/05/31 12:00:07;;;;;;;7.72;4.10;;;29.10;51.60;;;;;;5072078;28;20045;-78
2023/05/31 12:02:33;;;;;;;7.03;3.65;;;29.10;50.90;;;;;;5055239;28;20037;-78
2023/05/31 12:04:59;;;;;;;7.20;4.25;;;28.60;52.60;;;;;;5038315;28;20040;-78
2023/05/31 12:07:25;;;;;;;6.70;3.97;;;28.90;51.70;;;;;;5072083;28;20509;-77
2023/05/31 12:09:50;;;;;;;6.10;3.83;;;29.00;50.50;;;;;;5071834;28;20559;-77
2023/05/31 12:12:16;;;;;;;5.55;3.50;;;28.60;52.20;;;;;;5054560;28;20036;-78
2023/05/31 12:14:52;;;;;;;6.50;3.88;;;28.70;51.80;;;;;;5072018;28;20044;-78
2023/05/31 12:17:18;;;;;;;4.93;3.78;;;28.70;51.30;;;;;;5038461;28;20470;-78
2023/05/31 12:19:47;;;;;;;6.70;3.95;;;28.30;51.90;;;;;;5071862;28;20036;-77
2023/05/31 12:22:12;;;;;;;6.90;3.70;;;28.30;53.20;;;;;;5054578;28;20390;-78
2023/05/31 12:24:51;;;;;;;7.55;4.15;;;28.50;54.60;;;;;;5071961;28;20048;-78
2023/05/31 12:27:18;;;;;;;6.15;3.55;;;29.00;52.00;;;;;;5038654;28;20036;-78
2023/05/31 12:29:44;;;;;;;9.02;4.25;;;29.20;52.00;;;;;;5038596;28;20051;-77
2023/05/31 12:32:10;;;;;;;9.40;5.40;;;29.50;51.70;;;;;;5037794;28;20037;-77
2023/05/31 12:34:37;;;;;;;8.15;4.90;;;28.90;53.40;;;;;;5071503;28;20044;-78
2023/05/31 12:37:07;;;;;;;10.35;5.20;;;28.30;54.30;;;;;;5071287;28;20103;-78
2023/05/31 12:39:33;;;;;;;9.02;5.35;;;28.00;55.90;;;;;;5071593;28;20044;-77